T42 weather

Ruth Airport
Ruth, California, United States

Public forecast

Using degrees Fahrenheit for public forecast. Weather courtesy of forecast.io.

Closest aviation weather report (METAR) to Ruth Airport

Closest report is Lonnie Pool Field Weaverville Airport, 36.4 nm (67.4 km) NNE. Retrieved 2019/10/17 16:35 UTC (3 minutes ago):

KO54 171635Z AUTO 19004KT 10SM BKN060 BKN085 09/04 A2998 RMK AO1

Closest aviation forecast (TAF) to Ruth Airport

Closest forecast is Red Bluff Municipal Airport, 48.1 nm (89.1 km) E. Retrieved 2019/10/17 12:33 UTC (4 hours ago):

TAF KRBL 171129Z 1712/1812 VRB03KT P6SM BKN100 FM171800 35006KT P6SM SCT100 FM180600 33005KT P6SM BKN250